sensor_id;sensor_type;location;lat;lon;timestamp;temperature;humidity
58809;DHT22;44579;51.672;7.834;2023-05-15T00:00:01;15.40;54.40
58809;DHT22;44579;51.672;7.834;2023-05-15T00:02:38;15.40;54.30
58809;DHT22;44579;51.672;7.834;2023-05-15T00:05:09;15.30;54.30
58809;DHT22;44579;51.672;7.834;2023-05-15T00:07:36;15.20;54.40
58809;DHT22;44579;51.672;7.834;2023-05-15T00:10:03;15.20;54.40
58809;DHT22;44579;51.672;7.834;2023-05-15T00:12:31;15.20;54.40
58809;DHT22;44579;51.672;7.834;2023-05-15T00:14:58;15.20;54.40
58809;DHT22;44579;51.672;7.834;2023-05-15T00:17:25;15.20;54.40
58809;DHT22;44579;51.672;7.834;2023-05-15T00:19:52;15.20;54.40
58809;DHT22;44579;51.672;7.834;2023-05-15T00:22:23;15.10;54.40
58809;DHT22;44579;51.672;7.834;2023-05-15T00:24:51;15.20;54.50
58809;DHT22;44579;51.672;7.834;2023-05-15T00:27:18;15.20;54.50
58809;DHT22;44579;51.672;7.834;2023-05-15T00:29:45;15.20;54.50
58809;DHT22;44579;51.672;7.834;2023-05-15T00:32:12;15.10;54.40
58809;DHT22;44579;51.672;7.834;2023-05-15T00:34:41;15.10;54.50
58809;DHT22;44579;51.672;7.834;2023-05-15T00:37:08;15.00;54.60
58809;DHT22;44579;51.672;7.834;2023-05-15T00:39:37;15.00;54.70
58809;DHT22;44579;51.672;7.834;2023-05-15T00:42:04;15.00;54.70
58809;DHT22;44579;51.672;7.834;2023-05-15T00:44:32;14.90;54.60
58809;DHT22;44579;51.672;7.834;2023-05-15T00:46:59;14.90;54.70
58809;DHT22;44579;51.672;7.834;2023-05-15T00:49:27;14.90;54.80
58809;DHT22;44579;51.672;7.834;2023-05-15T00:51:55;14.90;54.80
58809;DHT22;44579;51.672;7.834;2023-05-15T00:54:23;14.90;54.80
58809;DHT22;44579;51.672;7.834;2023-05-15T00:56:50;14.90;54.70
58809;DHT22;44579;51.672;7.834;2023-05-15T00:59:18;14.90;54.60
58809;DHT22;44579;51.672;7.834;2023-05-15T01:01:45;14.90;54.70
58809;DHT22;44579;51.672;7.834;2023-05-15T01:04:12;14.90;54.70
58809;DHT22;44579;51.672;7.834;2023-05-15T01:06:39;14.80;54.60
58809;DHT22;44579;51.672;7.834;2023-05-15T01:09:06;14.80;54.70
58809;DHT22;44579;51.672;7.834;2023-05-15T01:11:34;14.70;54.70
58809;DHT22;44579;51.672;7.834;2023-05-15T01:14:03;14.70;54.80
58809;DHT22;44579;51.672;7.834;2023-05-15T01:16:34;14.70;54.90
58809;DHT22;44579;51.672;7.834;2023-05-15T01:19:02;14.70;54.90
58809;DHT22;44579;51.672;7.834;2023-05-15T01:32:02;14.50;54.90
58809;DHT22;44579;51.672;7.834;2023-05-15T01:34:42;14.50;55.10
58809;DHT22;44579;51.672;7.834;2023-05-15T01:37:09;14.50;55.00
58809;DHT22;44579;51.672;7.834;2023-05-15T01:39:37;14.50;55.00
58809;DHT22;44579;51.672;7.834;2023-05-15T01:42:07;14.40;55.00
58809;DHT22;44579;51.672;7.834;2023-05-15T01:44:45;14.50;55.10
58809;DHT22;44579;51.672;7.834;2023-05-15T01:47:17;14.40;55.10
58809;DHT22;44579;51.672;7.834;2023-05-15T01:49:48;14.30;55.20
58809;DHT22;44579;51.672;7.834;2023-05-15T01:52:17;14.30;55.30
58809;DHT22;44579;51.672;7.834;2023-05-15T01:54:46;14.30;55.30
58809;DHT22;44579;51.672;7.834;2023-05-15T01:57:13;14.20;55.20
58809;DHT22;44579;51.672;7.834;2023-05-15T01:59:40;14.20;55.20
58809;DHT22;44579;51.672;7.834;2023-05-15T02:02:08;14.20;55.20
58809;DHT22;44579;51.672;7.834;2023-05-15T02:04:36;14.10;55.30
58809;DHT22;44579;51.672;7.834;2023-05-15T02:07:03;14.10;55.50
58809;DHT22;44579;51.672;7.834;2023-05-15T02:09:33;14.10;55.50
58809;DHT22;44579;51.672;7.834;2023-05-15T02:12:01;14.10;55.50
58809;DHT22;44579;51.672;7.834;2023-05-15T02:14:28;14.00;55.50
58809;DHT22;44579;51.672;7.834;2023-05-15T02:16:56;14.00;55.60
58809;DHT22;44579;51.672;7.834;2023-05-15T02:19:23;14.00;55.60
58809;DHT22;44579;51.672;7.834;2023-05-15T02:21:50;13.90;55.70
58809;DHT22;44579;51.672;7.834;2023-05-15T02:24:17;13.90;55.70
58809;DHT22;44579;51.672;7.834;2023-05-15T02:27:03;13.90;55.70
58809;DHT22;44579;51.672;7.834;2023-05-15T02:38:05;13.70;56.00
58809;DHT22;44579;51.672;7.834;2023-05-15T02:40:34;13.60;55.90
58809;DHT22;44579;51.672;7.834;2023-05-15T02:43:04;13.60;56.00
58809;DHT22;44579;51.672;7.834;2023-05-15T02:45:32;13.60;55.90
58809;DHT22;44579;51.672;7.834;2023-05-15T02:48:00;13.60;55.80
58809;DHT22;44579;51.672;7.834;2023-05-15T02:50:27;13.60;55.90
58809;DHT22;44579;51.672;7.834;2023-05-15T02:53:01;13.50;55.90
58809;DHT22;44579;51.672;7.834;2023-05-15T02:55:28;13.50;55.90
58809;DHT22;44579;51.672;7.834;2023-05-15T02:57:56;13.50;56.00
58809;DHT22;44579;51.672;7.834;2023-05-15T03:00:23;13.40;56.00
58809;DHT22;44579;51.672;7.834;2023-05-15T03:02:50;13.40;56.00
58809;DHT22;44579;51.672;7.834;2023-05-15T03:05:17;13.50;56.00
58809;DHT22;44579;51.672;7.834;2023-05-15T03:07:44;13.40;55.90
58809;DHT22;44579;51.672;7.834;2023-05-15T03:10:11;13.40;55.80
58809;DHT22;44579;51.672;7.834;2023-05-15T03:12:38;13.40;55.90
58809;DHT22;44579;51.672;7.834;2023-05-15T03:15:05;13.30;55.90
58809;DHT22;44579;51.672;7.834;2023-05-15T03:17:32;13.30;56.00
58809;DHT22;44579;51.672;7.834;2023-05-15T03:20:01;13.30;55.90
58809;DHT22;44579;51.672;7.834;2023-05-15T03:22:28;13.30;56.00
58809;DHT22;44579;51.672;7.834;2023-05-15T03:24:58;13.20;56.00
58809;DHT22;44579;51.672;7.834;2023-05-15T03:27:27;13.30;56.10
58809;DHT22;44579;51.672;7.834;2023-05-15T03:29:57;13.30;56.10
58809;DHT22;44579;51.672;7.834;2023-05-15T03:32:27;13.20;56.00
58809;DHT22;44579;51.672;7.834;2023-05-15T03:34:57;13.30;56.00
58809;DHT22;44579;51.672;7.834;2023-05-15T03:37:24;13.30;56.00
58809;DHT22;44579;51.672;7.834;2023-05-15T03:39:51;13.40;56.00
58809;DHT22;44579;51.672;7.834;2023-05-15T03:42:18;13.30;56.00
58809;DHT22;44579;51.672;7.834;2023-05-15T03:44:49;13.30;56.00
58809;DHT22;44579;51.672;7.834;2023-05-15T03:47:17;13.30;56.10
58809;DHT22;44579;51.672;7.834;2023-05-15T03:49:44;13.30;56.10
58809;DHT22;44579;51.672;7.834;2023-05-15T03:52:11;13.30;56.10
58809;DHT22;44579;51.672;7.834;2023-05-15T03:54:39;13.40;56.20
58809;DHT22;44579;51.672;7.834;2023-05-15T03:57:08;13.30;56.10
58809;DHT22;44579;51.672;7.834;2023-05-15T03:59:35;13.40;56.20
58809;DHT22;44579;51.672;7.834;2023-05-15T04:02:02;13.40;56.20
58809;DHT22;44579;51.672;7.834;2023-05-15T04:04:32;13.40;56.30
58809;DHT22;44579;51.672;7.834;2023-05-15T04:06:59;13.40;56.30
58809;DHT22;44579;51.672;7.834;2023-05-15T04:09:26;13.40;56.30
58809;DHT22;44579;51.672;7.834;2023-05-15T04:11:53;13.40;57.00
58809;DHT22;44579;51.672;7.834;2023-05-15T04:14:20;13.40;56.40
58809;DHT22;44579;51.672;7.834;2023-05-15T04:16:47;13.40;56.50
58809;DHT22;44579;51.672;7.834;2023-05-15T04:19:14;13.40;56.50
58809;DHT22;44579;51.672;7.834;2023-05-15T04:21:41;13.40;56.60
58809;DHT22;44579;51.672;7.834;2023-05-15T04:24:08;13.40;56.50
58809;DHT22;44579;51.672;7.834;2023-05-15T04:26:35;13.50;56.60
58809;DHT22;44579;51.672;7.834;2023-05-15T04:29:02;13.50;56.50
58809;DHT22;44579;51.672;7.834;2023-05-15T04:31:30;13.60;56.50
58809;DHT22;44579;51.672;7.834;2023-05-15T04:33:58;13.60;56.60
58809;DHT22;44579;51.672;7.834;2023-05-15T04:36:24;13.60;56.70
58809;DHT22;44579;51.672;7.834;2023-05-15T04:38:51;13.70;56.90
58809;DHT22;44579;51.672;7.834;2023-05-15T04:41:18;13.80;56.90
58809;DHT22;44579;51.672;7.834;2023-05-15T04:43:45;13.90;57.00
58809;DHT22;44579;51.672;7.834;2023-05-15T04:46:12;14.10;57.20
58809;DHT22;44579;51.672;7.834;2023-05-15T04:48:39;14.30;57.30
58809;DHT22;44579;51.672;7.834;2023-05-15T04:51:07;14.50;57.40
58809;DHT22;44579;51.672;7.834;2023-05-15T04:53:34;14.80;57.50
58809;DHT22;44579;51.672;7.834;2023-05-15T04:56:04;14.90;57.50
58809;DHT22;44579;51.672;7.834;2023-05-15T04:58:34;15.20;57.70
58809;DHT22;44579;51.672;7.834;2023-05-15T05:01:01;15.30;57.90
58809;DHT22;44579;51.672;7.834;2023-05-15T05:03:30;15.50;58.20
58809;DHT22;44579;51.672;7.834;2023-05-15T05:06:00;15.70;58.40
58809;DHT22;44579;51.672;7.834;2023-05-15T05:08:27;15.80;58.50
58809;DHT22;44579;51.672;7.834;2023-05-15T05:10:54;15.90;58.70
58809;DHT22;44579;51.672;7.834;2023-05-15T05:13:23;16.00;58.80
58809;DHT22;44579;51.672;7.834;2023-05-15T05:15:50;16.20;59.10
58809;DHT22;44579;51.672;7.834;2023-05-15T05:18:17;16.30;59.30
58809;DHT22;44579;51.672;7.834;2023-05-15T05:20:44;16.40;59.30
58809;DHT22;44579;51.672;7.834;2023-05-15T05:23:11;16.40;59.40
58809;DHT22;44579;51.672;7.834;2023-05-15T05:25:40;16.40;59.50
58809;DHT22;44579;51.672;7.834;2023-05-15T05:28:07;16.40;59.70
58809;DHT22;44579;51.672;7.834;2023-05-15T05:30:34;16.40;59.70
58809;DHT22;44579;51.672;7.834;2023-05-15T05:33:04;16.30;59.70
58809;DHT22;44579;51.672;7.834;2023-05-15T05:35:32;16.10;59.90
58809;DHT22;44579;51.672;7.834;2023-05-15T05:38:00;16.00;60.00
58809;DHT22;44579;51.672;7.834;2023-05-15T05:40:30;16.00;60.30
58809;DHT22;44579;51.672;7.834;2023-05-15T05:42:58;16.10;60.40
58809;DHT22;44579;51.672;7.834;2023-05-15T05:45:28;16.20;60.40
58809;DHT22;44579;51.672;7.834;2023-05-15T05:47:55;16.20;60.40
58809;DHT22;44579;51.672;7.834;2023-05-15T05:50:23;16.30;60.40
58809;DHT22;44579;51.672;7.834;2023-05-15T05:52:50;16.40;60.40
58809;DHT22;44579;51.672;7.834;2023-05-15T05:55:17;16.40;60.50
58809;DHT22;44579;51.672;7.834;2023-05-15T05:57:49;16.30;60.70
58809;DHT22;44579;51.672;7.834;2023-05-15T06:00:17;16.40;61.00
58809;DHT22;44579;51.672;7.834;2023-05-15T06:02:44;16.50;61.10
58809;DHT22;44579;51.672;7.834;2023-05-15T06:05:11;16.70;61.10
58809;DHT22;44579;51.672;7.834;2023-05-15T06:07:38;16.70;61.40
58809;DHT22;44579;51.672;7.834;2023-05-15T06:10:08;16.70;61.70
58809;DHT22;44579;51.672;7.834;2023-05-15T06:12:35;16.80;61.70
58809;DHT22;44579;51.672;7.834;2023-05-15T06:15:05;16.90;61.50
58809;DHT22;44579;51.672;7.834;2023-05-15T06:17:32;16.90;61.40
58809;DHT22;44579;51.672;7.834;2023-05-15T06:19:59;16.90;61.30
58809;DHT22;44579;51.672;7.834;2023-05-15T06:22:26;16.80;61.20
58809;DHT22;44579;51.672;7.834;2023-05-15T06:25:00;16.50;61.50
58809;DHT22;44579;51.672;7.834;2023-05-15T06:27:33;16.30;62.00
58809;DHT22;44579;51.672;7.834;2023-05-15T06:30:00;16.20;62.20
58809;DHT22;44579;51.672;7.834;2023-05-15T06:32:30;16.20;62.10
58809;DHT22;44579;51.672;7.834;2023-05-15T06:35:03;16.20;61.90
58809;DHT22;44579;51.672;7.834;2023-05-15T06:37:34;16.20;61.80
58809;DHT22;44579;51.672;7.834;2023-05-15T06:40:04;16.10;61.60
58809;DHT22;44579;51.672;7.834;2023-05-15T06:42:31;16.10;61.60
58809;DHT22;44579;51.672;7.834;2023-05-15T06:44:58;16.20;61.30
58809;DHT22;44579;51.672;7.834;2023-05-15T06:47:26;16.30;61.10
58809;DHT22;44579;51.672;7.834;2023-05-15T06:49:53;16.30;60.90
58809;DHT22;44579;51.672;7.834;2023-05-15T06:52:21;16.30;60.80
58809;DHT22;44579;51.672;7.834;2023-05-15T06:54:54;16.20;60.70
58809;DHT22;44579;51.672;7.834;2023-05-15T06:57:21;16.20;61.00
58809;DHT22;44579;51.672;7.834;2023-05-15T06:59:48;16.10;61.00
58809;DHT22;44579;51.672;7.834;2023-05-15T07:02:19;15.90;61.10
58809;DHT22;44579;51.672;7.834;2023-05-15T07:04:51;15.90;61.40
58809;DHT22;44579;51.672;7.834;2023-05-15T07:07:20;15.80;61.40
58809;DHT22;44579;51.672;7.834;2023-05-15T07:09:49;15.70;61.90
58809;DHT22;44579;51.672;7.834;2023-05-15T07:12:17;15.60;63.20
58809;DHT22;44579;51.672;7.834;2023-05-15T07:14:51;15.60;63.30
58809;DHT22;44579;51.672;7.834;2023-05-15T07:17:19;15.80;63.20
58809;DHT22;44579;51.672;7.834;2023-05-15T07:19:47;15.90;63.00
58809;DHT22;44579;51.672;7.834;2023-05-15T07:22:14;15.90;62.70
58809;DHT22;44579;51.672;7.834;2023-05-15T07:24:41;16.00;62.60
58809;DHT22;44579;51.672;7.834;2023-05-15T07:27:08;16.00;62.70
58809;DHT22;44579;51.672;7.834;2023-05-15T07:29:35;16.00;63.10
58809;DHT22;44579;51.672;7.834;2023-05-15T07:32:01;16.00;62.90
58809;DHT22;44579;51.672;7.834;2023-05-15T07:34:31;16.10;62.70
58809;DHT22;44579;51.672;7.834;2023-05-15T07:36:58;16.20;62.60
58809;DHT22;44579;51.672;7.834;2023-05-15T07:39:25;16.30;62.40
58809;DHT22;44579;51.672;7.834;2023-05-15T07:41:52;16.40;62.30
58809;DHT22;44579;51.672;7.834;2023-05-15T07:44:19;16.50;62.70
58809;DHT22;44579;51.672;7.834;2023-05-15T07:46:53;16.50;62.90
58809;DHT22;44579;51.672;7.834;2023-05-15T07:49:24;16.60;62.70
58809;DHT22;44579;51.672;7.834;2023-05-15T07:51:55;16.80;62.60
58809;DHT22;44579;51.672;7.834;2023-05-15T07:54:23;16.80;62.50
58809;DHT22;44579;51.672;7.834;2023-05-15T07:56:57;16.80;62.40
58809;DHT22;44579;51.672;7.834;2023-05-15T07:59:26;17.00;62.50
58809;DHT22;44579;51.672;7.834;2023-05-15T08:01:56;17.10;62.50
58809;DHT22;44579;51.672;7.834;2023-05-15T08:04:23;17.20;62.50
58809;DHT22;44579;51.672;7.834;2023-05-15T08:06:50;17.20;62.60
58809;DHT22;44579;51.672;7.834;2023-05-15T08:09:20;17.30;62.50
58809;DHT22;44579;51.672;7.834;2023-05-15T08:11:47;17.50;62.30
58809;DHT22;44579;51.672;7.834;2023-05-15T08:14:15;17.70;62.30
58809;DHT22;44579;51.672;7.834;2023-05-15T08:16:44;17.70;62.30
58809;DHT22;44579;51.672;7.834;2023-05-15T08:19:11;17.70;62.80
58809;DHT22;44579;51.672;7.834;2023-05-15T08:21:42;17.70;63.00
58809;DHT22;44579;51.672;7.834;2023-05-15T08:24:11;17.70;63.30
58809;DHT22;44579;51.672;7.834;2023-05-15T08:26:40;17.60;63.50
58809;DHT22;44579;51.672;7.834;2023-05-15T08:29:07;17.50;64.50
58809;DHT22;44579;51.672;7.834;2023-05-15T08:31:34;17.50;64.70
58809;DHT22;44579;51.672;7.834;2023-05-15T08:34:02;17.50;65.30
58809;DHT22;44579;51.672;7.834;2023-05-15T08:36:29;17.40;65.60
58809;DHT22;44579;51.672;7.834;2023-05-15T08:38:56;17.50;65.50
58809;DHT22;44579;51.672;7.834;2023-05-15T08:41:27;17.60;65.20
58809;DHT22;44579;51.672;7.834;2023-05-15T08:44:07;17.70;64.90
58809;DHT22;44579;51.672;7.834;2023-05-15T08:46:38;17.90;64.50
58809;DHT22;44579;51.672;7.834;2023-05-15T08:49:19;18.00;64.20
58809;DHT22;44579;51.672;7.834;2023-05-15T08:51:49;18.10;64.10
58809;DHT22;44579;51.672;7.834;2023-05-15T08:54:16;18.00;64.30
58809;DHT22;44579;51.672;7.834;2023-05-15T08:56:43;18.00;64.50
58809;DHT22;44579;51.672;7.834;2023-05-15T08:59:10;17.90;64.60
58809;DHT22;44579;51.672;7.834;2023-05-15T09:01:38;17.90;64.80
58809;DHT22;44579;51.672;7.834;2023-05-15T09:04:06;17.90;65.00
58809;DHT22;44579;51.672;7.834;2023-05-15T09:06:33;17.90;65.10
58809;DHT22;44579;51.672;7.834;2023-05-15T09:09:02;17.90;65.40
58809;DHT22;44579;51.672;7.834;2023-05-15T09:11:36;17.90;65.60
58809;DHT22;44579;51.672;7.834;2023-05-15T09:14:04;17.90;65.50
58809;DHT22;44579;51.672;7.834;2023-05-15T09:16:33;18.10;65.30
58809;DHT22;44579;51.672;7.834;2023-05-15T09:19:00;18.10;65.10
58809;DHT22;44579;51.672;7.834;2023-05-15T09:21:31;18.10;65.00
58809;DHT22;44579;51.672;7.834;2023-05-15T09:24:15;17.90;65.80
58809;DHT22;44579;51.672;7.834;2023-05-15T09:26:44;17.60;66.70
58809;DHT22;44579;51.672;7.834;2023-05-15T09:29:15;17.50;67.50
58809;DHT22;44579;51.672;7.834;2023-05-15T09:31:45;17.60;67.30
58809;DHT22;44579;51.672;7.834;2023-05-15T09:34:12;17.60;67.20
58809;DHT22;44579;51.672;7.834;2023-05-15T09:36:42;17.60;66.90
58809;DHT22;44579;51.672;7.834;2023-05-15T09:39:13;17.60;66.60
58809;DHT22;44579;51.672;7.834;2023-05-15T09:41:48;17.70;66.40
58809;DHT22;44579;51.672;7.834;2023-05-15T09:44:25;17.70;66.40
58809;DHT22;44579;51.672;7.834;2023-05-15T09:46:52;17.40;67.40
58809;DHT22;44579;51.672;7.834;2023-05-15T09:49:19;17.10;68.60
58809;DHT22;44579;51.672;7.834;2023-05-15T09:51:46;17.00;69.10
58809;DHT22;44579;51.672;7.834;2023-05-15T09:54:17;16.80;69.80
58809;DHT22;44579;51.672;7.834;2023-05-15T09:56:47;16.90;69.80
58809;DHT22;44579;51.672;7.834;2023-05-15T09:59:17;16.90;69.50
58809;DHT22;44579;51.672;7.834;2023-05-15T10:01:44;17.00;70.10
58809;DHT22;44579;51.672;7.834;2023-05-15T10:04:15;17.00;69.80
58809;DHT22;44579;51.672;7.834;2023-05-15T10:06:47;17.10;69.40
58809;DHT22;44579;51.672;7.834;2023-05-15T10:09:17;17.20;69.20
58809;DHT22;44579;51.672;7.834;2023-05-15T10:11:49;17.20;69.60
58809;DHT22;44579;51.672;7.834;2023-05-15T10:14:16;17.30;69.60
58809;DHT22;44579;51.672;7.834;2023-05-15T10:16:44;17.40;69.00
58809;DHT22;44579;51.672;7.834;2023-05-15T10:19:12;17.60;68.20
58809;DHT22;44579;51.672;7.834;2023-05-15T10:21:39;17.70;67.60
58809;DHT22;44579;51.672;7.834;2023-05-15T10:24:07;17.90;67.50
58809;DHT22;44579;51.672;7.834;2023-05-15T10:26:35;17.80;67.30
58809;DHT22;44579;51.672;7.834;2023-05-15T10:29:08;17.90;67.60
58809;DHT22;44579;51.672;7.834;2023-05-15T10:31:35;17.90;67.80
58809;DHT22;44579;51.672;7.834;2023-05-15T10:34:11;17.90;68.20
58809;DHT22;44579;51.672;7.834;2023-05-15T10:36:39;17.90;68.60
58809;DHT22;44579;51.672;7.834;2023-05-15T10:39:11;18.00;69.30
58809;DHT22;44579;51.672;7.834;2023-05-15T10:41:41;18.20;67.80
58809;DHT22;44579;51.672;7.834;2023-05-15T10:44:08;18.40;67.70
58809;DHT22;44579;51.672;7.834;2023-05-15T10:46:38;18.60;67.20
58809;DHT22;44579;51.672;7.834;2023-05-15T10:49:05;18.90;66.70
58809;DHT22;44579;51.672;7.834;2023-05-15T10:51:37;19.10;66.40
58809;DHT22;44579;51.672;7.834;2023-05-15T10:54:06;19.20;66.10
58809;DHT22;44579;51.672;7.834;2023-05-15T10:56:36;19.10;66.20
58809;DHT22;44579;51.672;7.834;2023-05-15T10:59:07;18.90;66.40
58809;DHT22;44579;51.672;7.834;2023-05-15T11:01:38;18.90;66.50
58809;DHT22;44579;51.672;7.834;2023-05-15T11:04:06;18.90;66.50
58809;DHT22;44579;51.672;7.834;2023-05-15T11:06:34;18.80;66.40
58809;DHT22;44579;51.672;7.834;2023-05-15T11:12:20;18.90;66.10
58809;DHT22;44579;51.672;7.834;2023-05-15T11:17:21;18.50;66.80
58809;DHT22;44579;51.672;7.834;2023-05-15T11:29:25;18.50;67.60
58809;DHT22;44579;51.672;7.834;2023-05-15T11:31:50;18.60;67.20
58809;DHT22;44579;51.672;7.834;2023-05-15T11:34:33;18.50;67.10
58809;DHT22;44579;51.672;7.834;2023-05-15T11:37:02;18.50;67.20
58809;DHT22;44579;51.672;7.834;2023-05-15T11:39:39;18.50;67.20
58809;DHT22;44579;51.672;7.834;2023-05-15T11:45:31;18.40;67.70
58809;DHT22;44579;51.672;7.834;2023-05-15T11:47:59;18.50;67.40
58809;DHT22;44579;51.672;7.834;2023-05-15T11:50:29;18.70;67.00
58809;DHT22;44579;51.672;7.834;2023-05-15T11:53:08;18.70;66.50
58809;DHT22;44579;51.672;7.834;2023-05-15T11:55:37;18.80;66.30
58809;DHT22;44579;51.672;7.834;2023-05-15T11:58:04;18.90;66.10
58809;DHT22;44579;51.672;7.834;2023-05-15T12:00:32;18.90;65.50
58809;DHT22;44579;51.672;7.834;2023-05-15T12:03:05;18.80;65.60
58809;DHT22;44579;51.672;7.834;2023-05-15T12:05:32;18.80;65.80
58809;DHT22;44579;51.672;7.834;2023-05-15T12:08:10;18.70;65.70
58809;DHT22;44579;51.672;7.834;2023-05-15T12:10:41;18.70;66.00
58809;DHT22;44579;51.672;7.834;2023-05-15T12:13:12;18.70;66.00
58809;DHT22;44579;51.672;7.834;2023-05-15T12:15:44;18.70;66.20
58809;DHT22;44579;51.672;7.834;2023-05-15T12:18:12;18.70;67.30
58809;DHT22;44579;51.672;7.834;2023-05-15T12:20:39;18.80;66.40
58809;DHT22;44579;51.672;7.834;2023-05-15T12:23:16;18.90;66.20
58809;DHT22;44579;51.672;7.834;2023-05-15T12:25:43;18.90;66.00
58809;DHT22;44579;51.672;7.834;2023-05-15T12:28:11;18.90;66.00
58809;DHT22;44579;51.672;7.834;2023-05-15T12:30:38;18.90;66.10
58809;DHT22;44579;51.672;7.834;2023-05-15T12:33:06;19.00;65.90
58809;DHT22;44579;51.672;7.834;2023-05-15T12:35:35;19.00;65.40
58809;DHT22;44579;51.672;7.834;2023-05-15T12:38:10;19.20;65.40
58809;DHT22;44579;51.672;7.834;2023-05-15T12:40:39;19.20;64.60
58809;DHT22;44579;51.672;7.834;2023-05-15T12:43:06;19.20;64.30
58809;DHT22;44579;51.672;7.834;2023-05-15T12:45:34;19.40;64.20
58809;DHT22;44579;51.672;7.834;2023-05-15T12:48:03;19.50;63.80
58809;DHT22;44579;51.672;7.834;2023-05-15T12:50:31;19.50;62.60
58809;DHT22;44579;51.672;7.834;2023-05-15T12:53:01;19.50;61.80
58809;DHT22;44579;51.672;7.834;2023-05-15T12:55:29;19.40;61.90
58809;DHT22;44579;51.672;7.834;2023-05-15T12:58:06;19.50;62.00
58809;DHT22;44579;51.672;7.834;2023-05-15T13:00:34;19.60;60.60
58809;DHT22;44579;51.672;7.834;2023-05-15T13:03:02;19.60;59.40
58809;DHT22;44579;51.672;7.834;2023-05-15T13:05:32;19.60;58.80
58809;DHT22;44579;51.672;7.834;2023-05-15T13:08:04;19.60;58.40
58809;DHT22;44579;51.672;7.834;2023-05-15T13:10:32;19.60;58.20
58809;DHT22;44579;51.672;7.834;2023-05-15T13:12:59;19.80;58.20
58809;DHT22;44579;51.672;7.834;2023-05-15T13:15:44;19.90;57.90
58809;DHT22;44579;51.672;7.834;2023-05-15T13:18:12;20.00;57.00
58809;DHT22;44579;51.672;7.834;2023-05-15T13:20:43;20.00;56.40
58809;DHT22;44579;51.672;7.834;2023-05-15T13:23:11;20.10;56.70
58809;DHT22;44579;51.672;7.834;2023-05-15T13:25:38;20.20;56.40
58809;DHT22;44579;51.672;7.834;2023-05-15T13:28:06;20.20;56.30
58809;DHT22;44579;51.672;7.834;2023-05-15T13:30:33;20.30;55.40
58809;DHT22;44579;51.672;7.834;2023-05-15T13:33:01;20.20;55.10
58809;DHT22;44579;51.672;7.834;2023-05-15T13:35:28;20.20;54.70
58809;DHT22;44579;51.672;7.834;2023-05-15T13:37:55;20.20;54.50
58809;DHT22;44579;51.672;7.834;2023-05-15T13:40:22;20.30;54.00
58809;DHT22;44579;51.672;7.834;2023-05-15T13:42:50;20.20;53.00
58809;DHT22;44579;51.672;7.834;2023-05-15T13:45:16;20.20;52.40
58809;DHT22;44579;51.672;7.834;2023-05-15T13:47:43;20.10;52.70
58809;DHT22;44579;51.672;7.834;2023-05-15T13:50:11;20.10;53.30
58809;DHT22;44579;51.672;7.834;2023-05-15T13:52:38;20.20;52.50
58809;DHT22;44579;51.672;7.834;2023-05-15T13:55:05;20.10;51.80
58809;DHT22;44579;51.672;7.834;2023-05-15T13:57:32;20.10;51.50
58809;DHT22;44579;51.672;7.834;2023-05-15T13:59:59;20.20;51.80
58809;DHT22;44579;51.672;7.834;2023-05-15T14:02:26;20.20;51.10
58809;DHT22;44579;51.672;7.834;2023-05-15T14:04:54;20.30;51.10
58809;DHT22;44579;51.672;7.834;2023-05-15T14:07:21;20.40;51.00
58809;DHT22;44579;51.672;7.834;2023-05-15T14:09:49;20.40;50.30
58809;DHT22;44579;51.672;7.834;2023-05-15T14:12:16;20.50;50.70
58809;DHT22;44579;51.672;7.834;2023-05-15T14:14:44;20.50;50.70
58809;DHT22;44579;51.672;7.834;2023-05-15T14:17:15;20.60;50.90
58809;DHT22;44579;51.672;7.834;2023-05-15T14:19:42;20.60;50.70
58809;DHT22;44579;51.672;7.834;2023-05-15T14:22:09;20.70;50.90
58809;DHT22;44579;51.672;7.834;2023-05-15T14:24:36;20.70;50.30
58809;DHT22;44579;51.672;7.834;2023-05-15T14:27:03;20.70;49.80
58809;DHT22;44579;51.672;7.834;2023-05-15T14:29:30;20.60;49.70
58809;DHT22;44579;51.672;7.834;2023-05-15T14:31:59;20.60;48.90
58809;DHT22;44579;51.672;7.834;2023-05-15T14:34:28;20.60;48.80
58809;DHT22;44579;51.672;7.834;2023-05-15T14:36:55;20.60;48.90
58809;DHT22;44579;51.672;7.834;2023-05-15T14:39:26;20.60;49.00
58809;DHT22;44579;51.672;7.834;2023-05-15T14:41:53;20.70;48.90
58809;DHT22;44579;51.672;7.834;2023-05-15T14:44:20;20.60;49.00
58809;DHT22;44579;51.672;7.834;2023-05-15T14:46:47;20.70;48.70
58809;DHT22;44579;51.672;7.834;2023-05-15T14:49:14;20.60;48.20
58809;DHT22;44579;51.672;7.834;2023-05-15T14:51:44;20.60;48.40
58809;DHT22;44579;51.672;7.834;2023-05-15T14:54:11;20.50;48.80
58809;DHT22;44579;51.672;7.834;2023-05-15T14:56:38;20.60;49.00
58809;DHT22;44579;51.672;7.834;2023-05-15T14:59:05;20.60;49.20
58809;DHT22;44579;51.672;7.834;2023-05-15T15:01:32;20.70;49.20
58809;DHT22;44579;51.672;7.834;2023-05-15T15:03:59;20.70;49.10
58809;DHT22;44579;51.672;7.834;2023-05-15T15:06:26;20.60;48.60
58809;DHT22;44579;51.672;7.834;2023-05-15T15:08:53;20.60;48.60
58809;DHT22;44579;51.672;7.834;2023-05-15T15:11:20;20.70;48.80
58809;DHT22;44579;51.672;7.834;2023-05-15T15:13:47;20.80;49.00
58809;DHT22;44579;51.672;7.834;2023-05-15T15:16:14;20.80;48.90
58809;DHT22;44579;51.672;7.834;2023-05-15T15:18:41;20.80;48.60
58809;DHT22;44579;51.672;7.834;2023-05-15T15:21:08;20.80;48.70
58809;DHT22;44579;51.672;7.834;2023-05-15T15:23:36;20.70;48.90
58809;DHT22;44579;51.672;7.834;2023-05-15T15:26:03;20.70;49.10
58809;DHT22;44579;51.672;7.834;2023-05-15T15:28:30;20.70;49.20
58809;DHT22;44579;51.672;7.834;2023-05-15T15:30:59;20.70;49.20
58809;DHT22;44579;51.672;7.834;2023-05-15T15:33:26;20.70;49.10
58809;DHT22;44579;51.672;7.834;2023-05-15T15:35:54;20.70;48.40
58809;DHT22;44579;51.672;7.834;2023-05-15T15:38:21;20.70;48.10
58809;DHT22;44579;51.672;7.834;2023-05-15T15:40:47;20.60;47.30
58809;DHT22;44579;51.672;7.834;2023-05-15T15:43:14;20.60;46.80
58809;DHT22;44579;51.672;7.834;2023-05-15T15:45:41;20.60;46.70
58809;DHT22;44579;51.672;7.834;2023-05-15T15:48:09;20.60;46.70
58809;DHT22;44579;51.672;7.834;2023-05-15T15:50:37;20.60;46.90
58809;DHT22;44579;51.672;7.834;2023-05-15T15:53:04;20.70;47.70
58809;DHT22;44579;51.672;7.834;2023-05-15T15:55:31;20.80;47.00
58809;DHT22;44579;51.672;7.834;2023-05-15T15:58:01;20.80;46.70
58809;DHT22;44579;51.672;7.834;2023-05-15T16:00:28;20.80;46.30
58809;DHT22;44579;51.672;7.834;2023-05-15T16:02:55;20.70;46.70
58809;DHT22;44579;51.672;7.834;2023-05-15T16:05:23;20.70;46.90
58809;DHT22;44579;51.672;7.834;2023-05-15T16:07:53;20.80;47.20
58809;DHT22;44579;51.672;7.834;2023-05-15T16:10:19;20.70;47.10
58809;DHT22;44579;51.672;7.834;2023-05-15T16:12:47;20.70;46.50
58809;DHT22;44579;51.672;7.834;2023-05-15T16:15:16;20.60;46.70